sensor_id;sensor_type;location;lat;lon;timestamp;temperature;humidity
7206;DHT22;3644;53.480;10.004;2023-02-03T00:01:47;8.30;99.90
7206;DHT22;3644;53.480;10.004;2023-02-03T00:04:13;8.30;99.90
7206;DHT22;3644;53.480;10.004;2023-02-03T00:06:39;8.30;99.90
7206;DHT22;3644;53.480;10.004;2023-02-03T00:09:04;8.30;99.90
7206;DHT22;3644;53.480;10.004;2023-02-03T00:11:30;8.30;99.90
7206;DHT22;3644;53.480;10.004;2023-02-03T00:13:56;8.30;99.90
7206;DHT22;3644;53.480;10.004;2023-02-03T00:16:22;8.30;99.90
7206;DHT22;3644;53.480;10.004;2023-02-03T00:18:47;8.30;99.90
7206;DHT22;3644;53.480;10.004;2023-02-03T00:21:13;8.30;99.90
7206;DHT22;3644;53.480;10.004;2023-02-03T00:23:40;8.40;99.90
7206;DHT22;3644;53.480;10.004;2023-02-03T00:26:11;8.30;99.90
7206;DHT22;3644;53.480;10.004;2023-02-03T00:28:36;8.20;99.90
7206;DHT22;3644;53.480;10.004;2023-02-03T00:31:02;8.30;99.90
7206;DHT22;3644;53.480;10.004;2023-02-03T00:33:28;8.40;99.90
7206;DHT22;3644;53.480;10.004;2023-02-03T00:35:53;8.40;99.90
7206;DHT22;3644;53.480;10.004;2023-02-03T00:38:19;8.50;99.90
7206;DHT22;3644;53.480;10.004;2023-02-03T00:40:52;8.30;99.90
7206;DHT22;3644;53.480;10.004;2023-02-03T00:43:18;8.50;99.90
7206;DHT22;3644;53.480;10.004;2023-02-03T00:45:43;8.40;99.90
7206;DHT22;3644;53.480;10.004;2023-02-03T00:48:09;8.40;99.90
7206;DHT22;3644;53.480;10.004;2023-02-03T00:50:34;8.40;99.90
7206;DHT22;3644;53.480;10.004;2023-02-03T00:53:00;8.50;99.90
7206;DHT22;3644;53.480;10.004;2023-02-03T00:55:25;8.50;99.90
7206;DHT22;3644;53.480;10.004;2023-02-03T00:57:51;8.50;99.90
7206;DHT22;3644;53.480;10.004;2023-02-03T01:00:18;8.60;99.90
7206;DHT22;3644;53.480;10.004;2023-02-03T01:02:43;8.60;99.90
7206;DHT22;3644;53.480;10.004;2023-02-03T01:05:10;8.80;99.90
7206;DHT22;3644;53.480;10.004;2023-02-03T01:07:36;8.80;99.90
7206;DHT22;3644;53.480;10.004;2023-02-03T01:10:02;8.80;99.90
7206;DHT22;3644;53.480;10.004;2023-02-03T01:12:29;8.70;99.90
7206;DHT22;3644;53.480;10.004;2023-02-03T01:14:55;8.70;99.90
7206;DHT22;3644;53.480;10.004;2023-02-03T01:17:20;8.80;99.90
7206;DHT22;3644;53.480;10.004;2023-02-03T01:19:46;8.80;99.90
7206;DHT22;3644;53.480;10.004;2023-02-03T01:22:11;8.90;99.90
7206;DHT22;3644;53.480;10.004;2023-02-03T01:24:37;9.00;99.90
7206;DHT22;3644;53.480;10.004;2023-02-03T01:27:02;9.00;99.90
7206;DHT22;3644;53.480;10.004;2023-02-03T01:29:28;9.00;99.90
7206;DHT22;3644;53.480;10.004;2023-02-03T01:31:53;9.10;99.90
7206;DHT22;3644;53.480;10.004;2023-02-03T01:34:19;8.90;99.90
7206;DHT22;3644;53.480;10.004;2023-02-03T01:36:44;9.00;99.90
7206;DHT22;3644;53.480;10.004;2023-02-03T01:39:11;8.90;99.90
7206;DHT22;3644;53.480;10.004;2023-02-03T01:41:38;8.90;99.90
7206;DHT22;3644;53.480;10.004;2023-02-03T01:44:37;9.10;99.90
7206;DHT22;3644;53.480;10.004;2023-02-03T01:47:10;9.10;99.90
7206;DHT22;3644;53.480;10.004;2023-02-03T01:49:39;8.90;99.90
7206;DHT22;3644;53.480;10.004;2023-02-03T01:52:07;8.90;99.90
7206;DHT22;3644;53.480;10.004;2023-02-03T01:54:38;8.90;99.90
7206;DHT22;3644;53.480;10.004;2023-02-03T01:57:10;9.00;99.90
7206;DHT22;3644;53.480;10.004;2023-02-03T01:59:38;8.90;99.90
7206;DHT22;3644;53.480;10.004;2023-02-03T02:02:06;9.00;99.90
7206;DHT22;3644;53.480;10.004;2023-02-03T02:04:38;9.00;99.90
7206;DHT22;3644;53.480;10.004;2023-02-03T02:07:07;9.10;99.90
7206;DHT22;3644;53.480;10.004;2023-02-03T02:09:33;9.10;99.90
7206;DHT22;3644;53.480;10.004;2023-02-03T02:11:59;9.20;99.90
7206;DHT22;3644;53.480;10.004;2023-02-03T02:14:24;9.10;99.90
7206;DHT22;3644;53.480;10.004;2023-02-03T02:20:17;9.00;99.90
7206;DHT22;3644;53.480;10.004;2023-02-03T02:23:07;9.10;99.90
7206;DHT22;3644;53.480;10.004;2023-02-03T02:31:50;9.10;99.90
7206;DHT22;3644;53.480;10.004;2023-02-03T02:34:55;9.00;99.90
7206;DHT22;3644;53.480;10.004;2023-02-03T02:40:23;9.10;99.90
7206;DHT22;3644;53.480;10.004;2023-02-03T02:43:01;9.10;99.90
7206;DHT22;3644;53.480;10.004;2023-02-03T02:45:41;9.20;99.90
7206;DHT22;3644;53.480;10.004;2023-02-03T02:50:52;9.00;99.90
7206;DHT22;3644;53.480;10.004;2023-02-03T02:53:20;8.90;99.90
7206;DHT22;3644;53.480;10.004;2023-02-03T02:55:47;9.00;99.90
7206;DHT22;3644;53.480;10.004;2023-02-03T02:58:14;9.20;99.90
7206;DHT22;3644;53.480;10.004;2023-02-03T03:00:42;9.10;99.90
7206;DHT22;3644;53.480;10.004;2023-02-03T03:03:19;9.20;99.90
7206;DHT22;3644;53.480;10.004;2023-02-03T03:05:51;9.20;99.90
7206;DHT22;3644;53.480;10.004;2023-02-03T03:08:22;9.30;99.90
7206;DHT22;3644;53.480;10.004;2023-02-03T03:10:49;9.20;99.90
7206;DHT22;3644;53.480;10.004;2023-02-03T03:13:21;9.20;99.90
7206;DHT22;3644;53.480;10.004;2023-02-03T03:15:50;9.10;99.90
7206;DHT22;3644;53.480;10.004;2023-02-03T03:18:22;9.10;99.90
7206;DHT22;3644;53.480;10.004;2023-02-03T03:20:50;9.10;99.90
7206;DHT22;3644;53.480;10.004;2023-02-03T03:23:29;9.20;99.90
7206;DHT22;3644;53.480;10.004;2023-02-03T03:26:21;9.10;99.90
7206;DHT22;3644;53.480;10.004;2023-02-03T03:28:51;9.20;99.90
7206;DHT22;3644;53.480;10.004;2023-02-03T03:31:19;9.20;99.90
7206;DHT22;3644;53.480;10.004;2023-02-03T03:33:45;9.10;99.90
7206;DHT22;3644;53.480;10.004;2023-02-03T03:36:32;9.20;99.90
7206;DHT22;3644;53.480;10.004;2023-02-03T03:39:08;9.30;99.90
7206;DHT22;3644;53.480;10.004;2023-02-03T03:41:57;9.30;99.90
7206;DHT22;3644;53.480;10.004;2023-02-03T03:44:29;9.30;99.90
7206;DHT22;3644;53.480;10.004;2023-02-03T03:47:20;9.30;99.90
7206;DHT22;3644;53.480;10.004;2023-02-03T03:49:49;9.30;99.90
7206;DHT22;3644;53.480;10.004;2023-02-03T03:52:20;9.20;99.90
7206;DHT22;3644;53.480;10.004;2023-02-03T03:54:49;9.20;99.90
7206;DHT22;3644;53.480;10.004;2023-02-03T03:57:22;9.20;99.90
7206;DHT22;3644;53.480;10.004;2023-02-03T03:59:50;9.10;99.90
7206;DHT22;3644;53.480;10.004;2023-02-03T04:02:17;9.30;99.90
7206;DHT22;3644;53.480;10.004;2023-02-03T04:04:44;9.30;99.90
7206;DHT22;3644;53.480;10.004;2023-02-03T04:07:12;9.10;99.90
7206;DHT22;3644;53.480;10.004;2023-02-03T04:09:38;9.40;99.90
7206;DHT22;3644;53.480;10.004;2023-02-03T04:12:08;9.30;99.90
7206;DHT22;3644;53.480;10.004;2023-02-03T04:14:37;9.30;99.90
7206;DHT22;3644;53.480;10.004;2023-02-03T04:17:03;9.20;99.90
7206;DHT22;3644;53.480;10.004;2023-02-03T04:19:29;9.20;99.90
7206;DHT22;3644;53.480;10.004;2023-02-03T04:21:55;9.30;99.90
7206;DHT22;3644;53.480;10.004;2023-02-03T04:24:20;9.30;99.90
7206;DHT22;3644;53.480;10.004;2023-02-03T04:26:46;9.30;99.90
7206;DHT22;3644;53.480;10.004;2023-02-03T04:29:12;9.20;99.90
7206;DHT22;3644;53.480;10.004;2023-02-03T04:31:37;9.10;99.90
7206;DHT22;3644;53.480;10.004;2023-02-03T04:34:04;9.20;99.90
7206;DHT22;3644;53.480;10.004;2023-02-03T04:36:29;9.30;99.90
7206;DHT22;3644;53.480;10.004;2023-02-03T04:38:55;9.40;99.90
7206;DHT22;3644;53.480;10.004;2023-02-03T04:41:20;9.30;99.90
7206;DHT22;3644;53.480;10.004;2023-02-03T04:43:46;9.20;99.90
7206;DHT22;3644;53.480;10.004;2023-02-03T04:46:11;9.10;99.90
7206;DHT22;3644;53.480;10.004;2023-02-03T04:48:37;9.10;99.90
7206;DHT22;3644;53.480;10.004;2023-02-03T04:51:04;9.10;99.90
7206;DHT22;3644;53.480;10.004;2023-02-03T04:53:30;9.00;99.90
7206;DHT22;3644;53.480;10.004;2023-02-03T04:55:56;9.10;99.90
7206;DHT22;3644;53.480;10.004;2023-02-03T04:58:22;9.00;99.90
7206;DHT22;3644;53.480;10.004;2023-02-03T05:00:48;9.20;99.90
7206;DHT22;3644;53.480;10.004;2023-02-03T05:03:14;9.10;99.90
7206;DHT22;3644;53.480;10.004;2023-02-03T05:05:39;9.00;99.90
7206;DHT22;3644;53.480;10.004;2023-02-03T05:08:05;9.20;99.90
7206;DHT22;3644;53.480;10.004;2023-02-03T05:10:31;9.10;99.90
7206;DHT22;3644;53.480;10.004;2023-02-03T05:12:56;9.00;99.90
7206;DHT22;3644;53.480;10.004;2023-02-03T05:15:22;9.10;99.90
7206;DHT22;3644;53.480;10.004;2023-02-03T05:17:47;9.00;99.90
7206;DHT22;3644;53.480;10.004;2023-02-03T05:20:13;8.90;99.90
7206;DHT22;3644;53.480;10.004;2023-02-03T05:22:38;9.00;99.90
7206;DHT22;3644;53.480;10.004;2023-02-03T05:25:04;9.00;99.90
7206;DHT22;3644;53.480;10.004;2023-02-03T05:27:30;9.00;99.90
7206;DHT22;3644;53.480;10.004;2023-02-03T05:29:55;9.10;99.90
7206;DHT22;3644;53.480;10.004;2023-02-03T05:32:21;9.10;99.90
7206;DHT22;3644;53.480;10.004;2023-02-03T05:34:46;9.10;99.90
7206;DHT22;3644;53.480;10.004;2023-02-03T05:37:12;8.90;99.90
7206;DHT22;3644;53.480;10.004;2023-02-03T05:39:37;8.90;99.90
7206;DHT22;3644;53.480;10.004;2023-02-03T05:42:03;9.00;99.90
7206;DHT22;3644;53.480;10.004;2023-02-03T05:44:28;9.10;99.90
7206;DHT22;3644;53.480;10.004;2023-02-03T05:46:56;9.00;99.90
7206;DHT22;3644;53.480;10.004;2023-02-03T05:49:22;9.00;99.90
7206;DHT22;3644;53.480;10.004;2023-02-03T05:51:49;9.10;99.90
7206;DHT22;3644;53.480;10.004;2023-02-03T05:54:14;9.10;99.90
7206;DHT22;3644;53.480;10.004;2023-02-03T05:56:40;9.10;99.90
7206;DHT22;3644;53.480;10.004;2023-02-03T05:59:06;8.90;99.90
7206;DHT22;3644;53.480;10.004;2023-02-03T06:01:32;9.00;99.90
7206;DHT22;3644;53.480;10.004;2023-02-03T06:03:58;9.10;99.90
7206;DHT22;3644;53.480;10.004;2023-02-03T06:06:23;9.10;99.90
7206;DHT22;3644;53.480;10.004;2023-02-03T06:08:49;9.10;99.90
7206;DHT22;3644;53.480;10.004;2023-02-03T06:11:16;9.10;99.90
7206;DHT22;3644;53.480;10.004;2023-02-03T06:13:42;9.10;99.90
7206;DHT22;3644;53.480;10.004;2023-02-03T06:16:08;9.10;99.90
7206;DHT22;3644;53.480;10.004;2023-02-03T06:18:33;9.00;99.90
7206;DHT22;3644;53.480;10.004;2023-02-03T06:20:59;9.00;99.90
7206;DHT22;3644;53.480;10.004;2023-02-03T06:23:24;9.10;99.90
7206;DHT22;3644;53.480;10.004;2023-02-03T06:25:50;9.20;99.90
7206;DHT22;3644;53.480;10.004;2023-02-03T06:28:16;9.00;99.90
7206;DHT22;3644;53.480;10.004;2023-02-03T06:30:42;9.10;99.90
7206;DHT22;3644;53.480;10.004;2023-02-03T06:33:08;9.10;99.90
7206;DHT22;3644;53.480;10.004;2023-02-03T06:35:34;9.10;99.90
7206;DHT22;3644;53.480;10.004;2023-02-03T06:37:59;9.20;99.90
7206;DHT22;3644;53.480;10.004;2023-02-03T06:40:25;9.00;99.90
7206;DHT22;3644;53.480;10.004;2023-02-03T06:42:51;9.00;99.90
7206;DHT22;3644;53.480;10.004;2023-02-03T06:45:17;9.00;99.90
7206;DHT22;3644;53.480;10.004;2023-02-03T06:47:43;8.90;99.90
7206;DHT22;3644;53.480;10.004;2023-02-03T06:50:11;9.00;99.90
7206;DHT22;3644;53.480;10.004;2023-02-03T06:52:37;9.00;99.90
7206;DHT22;3644;53.480;10.004;2023-02-03T06:55:04;9.00;99.90
7206;DHT22;3644;53.480;10.004;2023-02-03T06:57:30;9.10;99.90
7206;DHT22;3644;53.480;10.004;2023-02-03T06:59:55;9.00;99.90
7206;DHT22;3644;53.480;10.004;2023-02-03T07:02:21;9.10;99.90
7206;DHT22;3644;53.480;10.004;2023-02-03T07:04:46;9.30;99.90
7206;DHT22;3644;53.480;10.004;2023-02-03T07:07:12;9.30;99.90
7206;DHT22;3644;53.480;10.004;2023-02-03T07:09:41;9.20;99.90
7206;DHT22;3644;53.480;10.004;2023-02-03T07:12:07;9.20;99.90
7206;DHT22;3644;53.480;10.004;2023-02-03T07:14:33;9.30;99.90
7206;DHT22;3644;53.480;10.004;2023-02-03T07:17:00;9.30;99.90
7206;DHT22;3644;53.480;10.004;2023-02-03T07:19:26;9.30;99.90
7206;DHT22;3644;53.480;10.004;2023-02-03T07:21:52;9.50;99.90
7206;DHT22;3644;53.480;10.004;2023-02-03T07:24:17;9.40;99.90
7206;DHT22;3644;53.480;10.004;2023-02-03T07:26:43;9.60;99.90
7206;DHT22;3644;53.480;10.004;2023-02-03T07:29:08;9.60;99.90
7206;DHT22;3644;53.480;10.004;2023-02-03T07:31:34;9.60;99.90
7206;DHT22;3644;53.480;10.004;2023-02-03T07:34:00;9.50;99.90
7206;DHT22;3644;53.480;10.004;2023-02-03T07:36:25;9.50;99.90
7206;DHT22;3644;53.480;10.004;2023-02-03T07:38:53;9.50;99.90
7206;DHT22;3644;53.480;10.004;2023-02-03T07:41:18;9.50;99.90
7206;DHT22;3644;53.480;10.004;2023-02-03T07:43:44;9.40;99.90
7206;DHT22;3644;53.480;10.004;2023-02-03T07:46:09;9.40;99.90
7206;DHT22;3644;53.480;10.004;2023-02-03T07:48:35;9.40;99.90
7206;DHT22;3644;53.480;10.004;2023-02-03T07:51:01;9.30;99.90
7206;DHT22;3644;53.480;10.004;2023-02-03T07:53:26;9.40;99.90
7206;DHT22;3644;53.480;10.004;2023-02-03T07:55:52;9.30;99.90
7206;DHT22;3644;53.480;10.004;2023-02-03T07:58:17;9.40;99.90
7206;DHT22;3644;53.480;10.004;2023-02-03T08:00:43;9.40;99.90
7206;DHT22;3644;53.480;10.004;2023-02-03T08:03:08;9.40;99.90
7206;DHT22;3644;53.480;10.004;2023-02-03T08:05:34;9.60;99.90
7206;DHT22;3644;53.480;10.004;2023-02-03T08:07:59;9.50;99.90
7206;DHT22;3644;53.480;10.004;2023-02-03T08:10:25;9.50;99.90
7206;DHT22;3644;53.480;10.004;2023-02-03T08:12:54;9.70;99.90
7206;DHT22;3644;53.480;10.004;2023-02-03T08:15:20;9.50;99.90
7206;DHT22;3644;53.480;10.004;2023-02-03T08:17:47;9.50;99.90
7206;DHT22;3644;53.480;10.004;2023-02-03T08:20:13;9.50;99.90
7206;DHT22;3644;53.480;10.004;2023-02-03T08:22:38;9.60;99.90
7206;DHT22;3644;53.480;10.004;2023-02-03T08:25:04;9.60;99.90
7206;DHT22;3644;53.480;10.004;2023-02-03T08:27:31;9.60;99.90
7206;DHT22;3644;53.480;10.004;2023-02-03T08:29:57;9.50;99.90
7206;DHT22;3644;53.480;10.004;2023-02-03T08:32:22;9.40;99.90
7206;DHT22;3644;53.480;10.004;2023-02-03T08:34:51;9.40;99.90
7206;DHT22;3644;53.480;10.004;2023-02-03T08:37:20;9.50;99.90
7206;DHT22;3644;53.480;10.004;2023-02-03T08:39:46;9.40;99.90
7206;DHT22;3644;53.480;10.004;2023-02-03T08:42:12;9.40;99.90
7206;DHT22;3644;53.480;10.004;2023-02-03T08:44:37;9.30;99.90
7206;DHT22;3644;53.480;10.004;2023-02-03T08:47:04;9.30;99.90
7206;DHT22;3644;53.480;10.004;2023-02-03T08:49:30;9.30;99.90
7206;DHT22;3644;53.480;10.004;2023-02-03T08:51:56;9.30;99.90
7206;DHT22;3644;53.480;10.004;2023-02-03T08:54:23;9.20;99.90
7206;DHT22;3644;53.480;10.004;2023-02-03T08:56:49;9.30;99.90
7206;DHT22;3644;53.480;10.004;2023-02-03T08:59:14;9.20;99.90
7206;DHT22;3644;53.480;10.004;2023-02-03T09:01:41;9.20;99.90
7206;DHT22;3644;53.480;10.004;2023-02-03T09:04:09;9.30;99.90
7206;DHT22;3644;53.480;10.004;2023-02-03T09:06:35;9.50;99.90
7206;DHT22;3644;53.480;10.004;2023-02-03T09:09:01;9.40;99.90
7206;DHT22;3644;53.480;10.004;2023-02-03T09:11:27;9.40;99.90
7206;DHT22;3644;53.480;10.004;2023-02-03T09:13:52;9.30;99.90
7206;DHT22;3644;53.480;10.004;2023-02-03T09:16:18;9.30;99.90
7206;DHT22;3644;53.480;10.004;2023-02-03T09:18:45;9.30;99.90
7206;DHT22;3644;53.480;10.004;2023-02-03T09:21:12;9.40;99.90
7206;DHT22;3644;53.480;10.004;2023-02-03T09:23:39;9.40;99.90
7206;DHT22;3644;53.480;10.004;2023-02-03T09:26:07;9.50;99.90
7206;DHT22;3644;53.480;10.004;2023-02-03T09:28:33;9.50;99.90
7206;DHT22;3644;53.480;10.004;2023-02-03T09:31:13;9.50;99.90
7206;DHT22;3644;53.480;10.004;2023-02-03T09:33:39;9.50;99.90
7206;DHT22;3644;53.480;10.004;2023-02-03T09:36:06;9.50;99.90
7206;DHT22;3644;53.480;10.004;2023-02-03T09:38:33;9.40;99.90
7206;DHT22;3644;53.480;10.004;2023-02-03T09:41:02;9.40;99.90
7206;DHT22;3644;53.480;10.004;2023-02-03T09:43:55;9.40;99.90
7206;DHT22;3644;53.480;10.004;2023-02-03T09:46:26;9.30;99.90
7206;DHT22;3644;53.480;10.004;2023-02-03T09:49:16;9.30;99.90
7206;DHT22;3644;53.480;10.004;2023-02-03T09:51:52;9.30;99.90
7206;DHT22;3644;53.480;10.004;2023-02-03T09:54:51;9.50;99.90
7206;DHT22;3644;53.480;10.004;2023-02-03T09:57:21;9.50;99.90
7206;DHT22;3644;53.480;10.004;2023-02-03T09:59:48;9.40;99.90
7206;DHT22;3644;53.480;10.004;2023-02-03T10:02:39;9.40;99.90
7206;DHT22;3644;53.480;10.004;2023-02-03T10:14:03;9.40;99.90
7206;DHT22;3644;53.480;10.004;2023-02-03T10:16:53;9.60;99.90
7206;DHT22;3644;53.480;10.004;2023-02-03T10:19:26;9.60;99.90
7206;DHT22;3644;53.480;10.004;2023-02-03T10:21:57;9.70;99.90
7206;DHT22;3644;53.480;10.004;2023-02-03T10:24:27;9.70;99.90
7206;DHT22;3644;53.480;10.004;2023-02-03T10:26:57;9.50;99.90
7206;DHT22;3644;53.480;10.004;2023-02-03T10:29:28;9.60;99.90
7206;DHT22;3644;53.480;10.004;2023-02-03T10:31:57;9.50;99.90
7206;DHT22;3644;53.480;10.004;2023-02-03T10:34:23;9.40;99.90
7206;DHT22;3644;53.480;10.004;2023-02-03T10:39:33;9.40;99.90
7206;DHT22;3644;53.480;10.004;2023-02-03T10:42:02;9.40;99.90
7206;DHT22;3644;53.480;10.004;2023-02-03T10:44:41;9.40;99.90
7206;DHT22;3644;53.480;10.004;2023-02-03T10:49:51;9.50;99.90
7206;DHT22;3644;53.480;10.004;2023-02-03T10:52:32;9.40;99.90
7206;DHT22;3644;53.480;10.004;2023-02-03T10:55:01;9.40;99.90
7206;DHT22;3644;53.480;10.004;2023-02-03T10:57:28;9.40;99.90
7206;DHT22;3644;53.480;10.004;2023-02-03T11:00:23;9.50;99.90
7206;DHT22;3644;53.480;10.004;2023-02-03T11:03:05;9.70;99.90
7206;DHT22;3644;53.480;10.004;2023-02-03T11:05:31;9.80;99.90
7206;DHT22;3644;53.480;10.004;2023-02-03T11:07:56;9.80;99.90
7206;DHT22;3644;53.480;10.004;2023-02-03T11:13:10;9.90;99.90
7206;DHT22;3644;53.480;10.004;2023-02-03T11:15:36;9.70;99.90
7206;DHT22;3644;53.480;10.004;2023-02-03T11:18:02;9.70;99.90
7206;DHT22;3644;53.480;10.004;2023-02-03T11:20:28;9.60;99.90
7206;DHT22;3644;53.480;10.004;2023-02-03T11:22:54;9.60;99.90
7206;DHT22;3644;53.480;10.004;2023-02-03T11:25:31;9.60;99.90
7206;DHT22;3644;53.480;10.004;2023-02-03T11:28:03;9.60;99.90
7206;DHT22;3644;53.480;10.004;2023-02-03T11:30:29;9.60;99.90
7206;DHT22;3644;53.480;10.004;2023-02-03T11:32:55;9.60;99.90
7206;DHT22;3644;53.480;10.004;2023-02-03T11:35:29;9.50;99.90
7206;DHT22;3644;53.480;10.004;2023-02-03T11:37:59;9.60;99.90
7206;DHT22;3644;53.480;10.004;2023-02-03T11:40:30;9.70;99.90
7206;DHT22;3644;53.480;10.004;2023-02-03T11:48:03;9.70;99.90
7206;DHT22;3644;53.480;10.004;2023-02-03T11:50:40;9.70;99.90
7206;DHT22;3644;53.480;10.004;2023-02-03T12:04:33;9.90;99.90
7206;DHT22;3644;53.480;10.004;2023-02-03T12:08:00;9.90;99.90
7206;DHT22;3644;53.480;10.004;2023-02-03T12:13:14;10.10;99.90
7206;DHT22;3644;53.480;10.004;2023-02-03T12:16:00;10.00;99.90
7206;DHT22;3644;53.480;10.004;2023-02-03T12:24:12;9.90;99.90
7206;DHT22;3644;53.480;10.004;2023-02-03T12:29:50;10.10;99.90
7206;DHT22;3644;53.480;10.004;2023-02-03T12:34:51;9.90;99.90
7206;DHT22;3644;53.480;10.004;2023-02-03T12:37:24;9.90;99.90
7206;DHT22;3644;53.480;10.004;2023-02-03T12:40:20;9.80;99.90
7206;DHT22;3644;53.480;10.004;2023-02-03T12:45:37;9.70;99.90
7206;DHT22;3644;53.480;10.004;2023-02-03T12:48:09;9.70;99.90
7206;DHT22;3644;53.480;10.004;2023-02-03T12:50:50;9.80;99.90
7206;DHT22;3644;53.480;10.004;2023-02-03T12:53:33;9.90;99.90
7206;DHT22;3644;53.480;10.004;2023-02-03T12:56:14;9.90;99.90
7206;DHT22;3644;53.480;10.004;2023-02-03T12:58:49;9.80;99.90
7206;DHT22;3644;53.480;10.004;2023-02-03T13:01:20;9.70;99.90
7206;DHT22;3644;53.480;10.004;2023-02-03T13:03:53;9.70;99.90
7206;DHT22;3644;53.480;10.004;2023-02-03T13:09:38;9.70;99.90
7206;DHT22;3644;53.480;10.004;2023-02-03T13:14:46;9.70;99.90
7206;DHT22;3644;53.480;10.004;2023-02-03T13:20:28;9.70;99.90
7206;DHT22;3644;53.480;10.004;2023-02-03T13:22:56;9.60;99.90
7206;DHT22;3644;53.480;10.004;2023-02-03T13:36:29;9.40;99.90
7206;DHT22;3644;53.480;10.004;2023-02-03T13:42:17;9.60;99.90
7206;DHT22;3644;53.480;10.004;2023-02-03T13:44:46;9.60;99.90
7206;DHT22;3644;53.480;10.004;2023-02-03T13:47:17;9.60;99.90
7206;DHT22;3644;53.480;10.004;2023-02-03T13:49:47;9.60;99.90
7206;DHT22;3644;53.480;10.004;2023-02-03T13:52:27;9.60;99.90
7206;DHT22;3644;53.480;10.004;2023-02-03T13:54:53;9.50;99.90
7206;DHT22;3644;53.480;10.004;2023-02-03T13:57:32;9.50;99.90
7206;DHT22;3644;53.480;10.004;2023-02-03T14:00:56;9.50;99.90
7206;DHT22;3644;53.480;10.004;2023-02-03T14:02:53;9.50;99.90
7206;DHT22;3644;53.480;10.004;2023-02-03T14:05:40;9.40;99.90
7206;DHT22;3644;53.480;10.004;2023-02-03T14:16:38;9.30;99.90
7206;DHT22;3644;53.480;10.004;2023-02-03T14:19:07;9.10;99.90
7206;DHT22;3644;53.480;10.004;2023-02-03T14:21:43;9.10;99.90
7206;DHT22;3644;53.480;10.004;2023-02-03T14:24:11;9.10;99.90
7206;DHT22;3644;53.480;10.004;2023-02-03T14:26:41;9.10;99.90
7206;DHT22;3644;53.480;10.004;2023-02-03T14:29:10;9.10;99.90
7206;DHT22;3644;53.480;10.004;2023-02-03T14:34:47;8.90;99.90
7206;DHT22;3644;53.480;10.004;2023-02-03T14:51:30;9.20;99.90
7206;DHT22;3644;53.480;10.004;2023-02-03T14:57:07;9.10;99.90
7206;DHT22;3644;53.480;10.004;2023-02-03T15:02:12;9.00;99.90
7206;DHT22;3644;53.480;10.004;2023-02-03T15:04:42;9.10;99.90
7206;DHT22;3644;53.480;10.004;2023-02-03T15:07:42;8.80;99.90
7206;DHT22;3644;53.480;10.004;2023-02-03T15:12:50;9.10;99.90
7206;DHT22;3644;53.480;10.004;2023-02-03T15:15:24;9.10;99.90
7206;DHT22;3644;53.480;10.004;2023-02-03T15:17:52;9.00;99.90
7206;DHT22;3644;53.480;10.004;2023-02-03T15:20:36;9.00;99.90
7206;DHT22;3644;53.480;10.004;2023-02-03T15:23:26;9.00;99.90
7206;DHT22;3644;53.480;10.004;2023-02-03T15:25:56;8.90;99.90
7206;DHT22;3644;53.480;10.004;2023-02-03T15:28:23;8.90;99.90
7206;DHT22;3644;53.480;10.004;2023-02-03T15:31:02;9.00;99.90
7206;DHT22;3644;53.480;10.004;2023-02-03T15:33:31;8.80;99.90
7206;DHT22;3644;53.480;10.004;2023-02-03T15:36:06;8.70;99.90
7206;DHT22;3644;53.480;10.004;2023-02-03T15:38:39;8.80;99.90
7206;DHT22;3644;53.480;10.004;2023-02-03T15:41:08;8.80;99.90
7206;DHT22;3644;53.480;10.004;2023-02-03T15:43:37;8.80;99.90
7206;DHT22;3644;53.480;10.004;2023-02-03T15:57:07;8.70;99.90
7206;DHT22;3644;53.480;10.004;2023-02-03T16:01:46;8.70;99.90
7206;DHT22;3644;53.480;10.004;2023-02-03T16:04:12;8.80;99.90
7206;DHT22;3644;53.480;10.004;2023-02-03T16:06:39;8.70;99.90
7206;DHT22;3644;53.480;10.004;2023-02-03T16:14:43;8.80;99.90
7206;DHT22;3644;53.480;10.004;2023-02-03T16:17:31;8.80;99.90
7206;DHT22;3644;53.480;10.004;2023-02-03T16:22:43;8.70;99.90
7206;DHT22;3644;53.480;10.004;2023-02-03T16:25:19;8.90;99.90
7206;DHT22;3644;53.480;10.004;2023-02-03T16:27:58;8.80;99.90
7206;DHT22;3644;53.480;10.004;2023-02-03T16:31:01;8.80;99.90
7206;DHT22;3644;53.480;10.004;2023-02-03T16:33:47;8.70;99.90
7206;DHT22;3644;53.480;10.004;2023-02-03T16:36:32;8.60;99.90
7206;DHT22;3644;53.480;10.004;2023-02-03T16:39:16;8.70;99.90
7206;DHT22;3644;53.480;10.004;2023-02-03T16:42:08;8.50;99.90
7206;DHT22;3644;53.480;10.004;2023-02-03T16:44:56;8.50;99.90
7206;DHT22;3644;53.480;10.004;2023-02-03T16:47:40;8.50;99.90
7206;DHT22;3644;53.480;10.004;2023-02-03T16:50:24;8.50;99.90
7206;DHT22;3644;53.480;10.004;2023-02-03T16:53:34;8.50;99.90
7206;DHT22;3644;53.480;10.004;2023-02-03T16:56:02;8.60;99.90
7206;DHT22;3644;53.480;10.004;2023-02-03T16:58:28;8.40;99.90
7206;DHT22;3644;53.480;10.004;2023-02-03T17:00:56;8.40;99.90
7206;DHT22;3644;53.480;10.004;2023-02-03T17:03:24;8.40;99.90
7206;DHT22;3644;53.480;10.004;2023-02-03T17:05:50;8.40;99.90
7206;DHT22;3644;53.480;10.004;2023-02-03T17:08:19;8.50;99.90
7206;DHT22;3644;53.480;10.004;2023-02-03T17:10:45;8.40;99.90
7206;DHT22;3644;53.480;10.004;2023-02-03T17:13:13;8.40;99.90
7206;DHT22;3644;53.480;10.004;2023-02-03T17:15:44;8.50;99.90
7206;DHT22;3644;53.480;10.004;2023-02-03T17:18:09;8.50;99.90
7206;DHT22;3644;53.480;10.004;2023-02-03T17:20:35;8.30;99.90
7206;DHT22;3644;53.480;10.004;2023-02-03T17:23:02;8.50;99.90
7206;DHT22;3644;53.480;10.004;2023-02-03T17:25:27;8.50;99.90
7206;DHT22;3644;53.480;10.004;2023-02-03T17:27:53;8.40;99.90
7206;DHT22;3644;53.480;10.004;2023-02-03T17:30:19;8.40;99.90
7206;DHT22;3644;53.480;10.004;2023-02-03T17:32:44;8.40;99.90
7206;DHT22;3644;53.480;10.004;2023-02-03T17:35:09;8.30;99.90
7206;DHT22;3644;53.480;10.004;2023-02-03T17:37:35;8.40;99.90
7206;DHT22;3644;53.480;10.004;2023-02-03T17:40:01;8.30;99.90
7206;DHT22;3644;53.480;10.004;2023-02-03T17:42:27;8.30;99.90
7206;DHT22;3644;53.480;10.004;2023-02-03T17:44:52;8.30;99.90
7206;DHT22;3644;53.480;10.004;2023-02-03T17:47:18;8.40;99.90
7206;DHT22;3644;53.480;10.004;2023-02-03T17:49:43;8.40;99.90
7206;DHT22;3644;53.480;10.004;2023-02-03T17:52:11;8.40;99.90
7206;DHT22;3644;53.480;10.004;2023-02-03T17:54:36;8.40;99.90
7206;DHT22;3644;53.480;10.004;2023-02-03T17:57:02;8.30;99.90
7206;DHT22;3644;53.480;10.004;2023-02-03T17:59:27;8.30;99.90
7206;DHT22;3644;53.480;10.004;2023-02-03T18:01:53;8.10;99.90
7206;DHT22;3644;53.480;10.004;2023-02-03T18:04:19;8.30;99.90
7206;DHT22;3644;53.480;10.004;2023-02-03T18:06:44;8.20;99.90
7206;DHT22;3644;53.480;10.004;2023-02-03T18:09:11;8.10;99.90
7206;DHT22;3644;53.480;10.004;2023-02-03T18:11:41;8.10;99.90
7206;DHT22;3644;53.480;10.004;2023-02-03T18:14:08;8.00;99.90
7206;DHT22;3644;53.480;10.004;2023-02-03T18:16:35;8.00;99.90
7206;DHT22;3644;53.480;10.004;2023-02-03T18:19:04;8.10;99.90
7206;DHT22;3644;53.480;10.004;2023-02-03T18:21:30;8.00;99.90
7206;DHT22;3644;53.480;10.004;2023-02-03T18:24:00;8.10;99.90
7206;DHT22;3644;53.480;10.004;2023-02-03T18:26:31;8.20;99.90
7206;DHT22;3644;53.480;10.004;2023-02-03T18:28:59;8.00;99.90
7206;DHT22;3644;53.480;10.004;2023-02-03T18:31:25;7.90;99.90
7206;DHT22;3644;53.480;10.004;2023-02-03T18:33:51;8.00;99.90
7206;DHT22;3644;53.480;10.004;2023-02-03T18:36:17;8.10;99.90
7206;DHT22;3644;53.480;10.004;2023-02-03T18:38:44;8.10;99.90
7206;DHT22;3644;53.480;10.004;2023-02-03T18:41:22;8.20;99.90
7206;DHT22;3644;53.480;10.004;2023-02-03T18:43:48;8.20;99.90